createdAt,value
2018-04-25T00:02:22.957Z,5.93
2018-04-25T00:04:50.416Z,5.70
2018-04-25T00:07:17.901Z,7.30
2018-04-25T00:09:45.381Z,5.40
2018-04-25T00:12:13.348Z,5.13
2018-04-25T00:14:40.893Z,7.10
2018-04-25T00:17:08.461Z,5.30
2018-04-25T00:19:35.946Z,8.87
2018-04-25T00:22:03.807Z,7.93
2018-04-25T00:24:31.384Z,9.20
2018-04-25T00:26:58.840Z,5.37
2018-04-25T00:29:26.724Z,6.13
2018-04-25T00:31:54.627Z,12.13
2018-04-25T00:34:22.101Z,5.90
2018-04-25T00:36:49.659Z,5.77
2018-04-25T00:39:17.614Z,5.63
2018-04-25T00:41:45.134Z,7.00
2018-04-25T00:44:12.697Z,7.53
2018-04-25T00:46:40.373Z,6.90
2018-04-25T00:49:07.805Z,6.33
2018-04-25T00:51:35.298Z,6.10
2018-04-25T00:54:02.863Z,6.87
2018-04-25T00:56:30.333Z,7.83
2018-04-25T00:58:58.200Z,6.83
2018-04-25T01:01:26.113Z,8.00
2018-04-25T01:03:53.578Z,7.60
2018-04-25T01:06:21.027Z,7.10
2018-04-25T01:08:48.511Z,7.20
2018-04-25T01:11:16.015Z,7.30
2018-04-25T01:13:43.505Z,6.60
2018-04-25T01:16:11.367Z,6.63
2018-04-25T01:18:39.312Z,6.73
2018-04-25T01:21:06.876Z,6.50
2018-04-25T01:23:34.343Z,8.10
2018-04-25T01:26:06.852Z,5.77
2018-04-25T01:41:54.423Z,8.80
2018-04-25T01:44:21.971Z,6.73
2018-04-25T01:46:51.908Z,5.97
2018-04-25T01:49:23.981Z,6.30
2018-04-25T01:52:03.228Z,8.27
2018-04-25T01:54:43.051Z,6.30
2018-04-25T01:57:22.725Z,8.70
2018-04-25T02:00:02.606Z,6.20
2018-04-25T02:02:29.675Z,6.43
2018-04-25T02:04:57.140Z,6.03
2018-04-25T02:07:24.593Z,6.90
2018-04-25T02:09:52.071Z,5.27
2018-04-25T02:12:19.536Z,6.00
2018-04-25T02:14:47.050Z,5.63
2018-04-25T02:17:14.512Z,8.37
2018-04-25T02:19:41.981Z,6.27
2018-04-25T02:22:09.455Z,6.70
2018-04-25T02:24:36.932Z,7.20
2018-04-25T02:27:04.508Z,7.13
2018-04-25T02:29:31.960Z,6.63
2018-04-25T02:31:59.459Z,7.83
2018-04-25T02:34:27.416Z,6.93
2018-04-25T02:36:54.877Z,10.17
2018-04-25T02:39:22.396Z,7.40
2018-04-25T02:41:49.895Z,6.53
2018-04-25T02:44:17.358Z,9.33
2018-04-25T02:46:44.834Z,11.40
2018-04-25T02:49:12.689Z,8.57
2018-04-25T02:51:40.246Z,9.90
2018-04-25T02:54:07.713Z,7.10
2018-04-25T02:56:35.192Z,7.57
2018-04-25T02:59:02.654Z,7.33
2018-04-25T03:01:30.518Z,6.90
2018-04-25T03:03:58.033Z,8.77
2018-04-25T03:06:25.587Z,7.43
2018-04-25T03:08:53.046Z,10.33
2018-04-25T03:11:20.508Z,7.40
2018-04-25T03:13:48.058Z,7.70
2018-04-25T03:16:15.579Z,8.00
2018-04-25T03:18:43.040Z,7.17
2018-04-25T03:21:10.497Z,9.63
2018-04-25T03:23:37.976Z,7.93
2018-04-25T03:26:05.443Z,8.87
2018-04-25T03:28:33.186Z,9.13
2018-04-25T03:31:00.655Z,9.10
2018-04-25T03:33:28.117Z,7.40
2018-04-25T03:35:55.576Z,7.97
2018-04-25T03:38:23.049Z,13.33
2018-04-25T03:40:50.526Z,10.50
2018-04-25T03:43:18.184Z,8.10
2018-04-25T03:45:45.664Z,9.10
2018-04-25T03:48:13.543Z,8.87
2018-04-25T03:50:41.505Z,8.83
2018-04-25T03:53:09.423Z,9.90
2018-04-25T03:55:36.924Z,8.07
2018-04-25T03:58:04.394Z,9.17
2018-04-25T04:00:31.865Z,10.17
2018-04-25T04:02:59.412Z,8.43
2018-04-25T04:05:26.937Z,8.60
2018-04-25T04:07:54.440Z,7.50
2018-04-25T04:10:21.910Z,7.23
2018-04-25T04:12:49.376Z,10.37
2018-04-25T04:15:16.840Z,9.50
2018-04-25T04:17:44.720Z,10.80
2018-04-25T04:20:12.587Z,8.63
2018-04-25T04:22:40.459Z,9.53
2018-04-25T04:25:08.313Z,8.17
2018-04-25T04:27:35.880Z,9.17
2018-04-25T04:30:03.412Z,8.73
2018-04-25T04:32:30.901Z,9.73
2018-04-25T04:34:58.359Z,15.30
2018-04-25T04:37:25.915Z,12.90
2018-04-25T04:39:53.378Z,13.23
2018-04-25T04:42:20.921Z,10.90
2018-04-25T04:44:49.535Z,10.57
2018-04-25T04:47:17.016Z,12.73
2018-04-25T04:49:44.887Z,9.00
2018-04-25T04:52:12.836Z,8.97
2018-04-25T04:54:40.426Z,14.70
2018-04-25T04:57:07.899Z,9.93
2018-04-25T04:59:35.850Z,9.93
2018-04-25T05:02:03.629Z,12.33
2018-04-25T05:04:31.101Z,15.03
2018-04-25T05:06:58.964Z,9.10
2018-04-25T05:09:26.922Z,12.20
2018-04-25T05:11:54.488Z,17.83
2018-04-25T05:14:22.054Z,17.00
2018-04-25T05:16:49.519Z,12.43
2018-04-25T05:19:17.037Z,8.43
2018-04-25T05:21:45.492Z,13.03
2018-04-25T05:24:13.465Z,12.27
2018-04-25T05:26:41.313Z,9.90
2018-04-25T05:29:08.783Z,11.27
2018-04-25T05:31:36.696Z,14.27
2018-04-25T05:34:04.178Z,12.90
2018-04-25T05:36:31.644Z,17.80
2018-04-25T05:38:59.111Z,13.87
2018-04-25T05:41:26.588Z,9.43
2018-04-25T05:43:54.085Z,11.27
2018-04-25T05:46:21.939Z,11.57
2018-04-25T05:48:49.821Z,9.53
2018-04-25T05:51:17.676Z,10.53
2018-04-25T05:53:45.386Z,9.50
2018-04-25T05:56:12.872Z,9.57
2018-04-25T05:58:40.468Z,8.47
2018-04-25T06:01:08.329Z,8.00
2018-04-25T06:03:35.885Z,11.17
2018-04-25T06:06:03.355Z,11.47
2018-04-25T06:08:30.852Z,10.83
2018-04-25T06:10:58.717Z,11.00
2018-04-25T06:13:26.575Z,7.80
2018-04-25T06:15:54.036Z,8.87
2018-04-25T06:18:21.503Z,9.10
2018-04-25T06:20:49.054Z,13.60
2018-04-25T06:23:16.521Z,10.63
2018-04-25T06:25:43.971Z,9.27
2018-04-25T06:28:11.457Z,11.70
2018-04-25T06:30:38.904Z,8.10
2018-04-25T06:33:06.400Z,9.67
2018-04-25T06:35:34.540Z,9.63
2018-04-25T06:38:02.004Z,9.30
2018-04-25T06:40:29.448Z,9.10
2018-04-25T06:42:56.908Z,9.20
2018-04-25T06:45:24.494Z,16.00
2018-04-25T06:47:52.057Z,9.57
2018-04-25T06:50:19.524Z,7.80
2018-04-25T06:52:47.083Z,9.40
2018-04-25T06:55:14.545Z,9.73
2018-04-25T06:57:42.109Z,12.57
2018-04-25T07:00:09.674Z,9.13
2018-04-25T07:02:37.200Z,10.47
2018-04-25T07:05:04.664Z,10.27
2018-04-25T07:07:32.146Z,11.00
2018-04-25T07:09:59.752Z,9.60
2018-04-25T07:12:27.314Z,12.73
2018-04-25T07:14:55.163Z,9.20
2018-04-25T07:17:22.724Z,10.93
2018-04-25T07:19:50.194Z,12.80
2018-04-25T07:22:17.714Z,11.17
2018-04-25T07:24:45.180Z,11.53
2018-04-25T07:27:12.646Z,10.13
2018-04-25T07:29:40.143Z,14.20
2018-04-25T07:32:07.620Z,9.20
2018-04-25T07:34:35.137Z,9.47
2018-04-25T07:37:02.637Z,11.73
2018-04-25T07:39:30.181Z,10.20
2018-04-25T07:41:57.670Z,16.53
2018-04-25T07:44:25.294Z,9.90
2018-04-25T07:46:52.740Z,11.47
2018-04-25T07:49:20.200Z,12.33
2018-04-25T07:51:47.670Z,10.43
2018-04-25T07:54:15.130Z,11.40
2018-04-25T07:56:42.588Z,10.87
2018-04-25T07:59:10.675Z,13.17
2018-04-25T08:01:38.131Z,11.93
2018-04-25T08:04:05.591Z,15.93
2018-04-25T08:06:33.049Z,13.53
2018-04-25T08:09:00.519Z,12.17
2018-04-25T08:11:28.032Z,11.77
2018-04-25T08:14:07.962Z,17.10
2018-04-25T08:16:47.403Z,15.60
2018-04-25T08:19:26.947Z,14.00
2018-04-25T08:21:54.459Z,12.33
2018-04-25T08:24:21.919Z,13.70
2018-04-25T08:26:49.425Z,14.90
2018-04-25T08:29:16.893Z,15.60
2018-04-25T08:31:44.778Z,12.40
2018-04-25T08:34:13.352Z,12.17
2018-04-25T08:36:41.318Z,10.97
2018-04-25T08:39:08.906Z,11.57
2018-04-25T08:41:36.855Z,12.80
2018-04-25T08:44:04.342Z,14.53
2018-04-25T08:46:32.263Z,15.13
2018-04-25T08:48:59.753Z,13.53
2018-04-25T08:51:28.185Z,12.80
2018-04-25T08:53:55.694Z,13.27
2018-04-25T08:56:23.197Z,11.70
2018-04-25T08:58:51.069Z,12.97
2018-04-25T09:01:19.019Z,15.33
2018-04-25T09:03:46.492Z,12.60
2018-04-25T09:06:14.374Z,12.73
2018-04-25T09:08:41.844Z,14.50
2018-04-25T09:11:09.470Z,11.97
2018-04-25T09:13:36.954Z,17.90
2018-04-25T09:16:04.816Z,11.30
2018-04-25T09:18:32.283Z,12.50
2018-04-25T09:21:00.160Z,15.70
2018-04-25T09:23:27.695Z,15.43
2018-04-25T09:25:55.188Z,15.53
2018-04-25T09:28:23.053Z,13.77
2018-04-25T09:30:50.904Z,9.80
2018-04-25T09:33:18.455Z,13.53
2018-04-25T09:35:45.924Z,9.30
2018-04-25T09:38:13.381Z,9.13
2018-04-25T09:40:40.939Z,9.67
2018-04-25T09:43:08.403Z,10.37
2018-04-25T09:45:35.861Z,15.93
2018-04-25T09:48:03.876Z,9.83
2018-04-25T09:50:31.750Z,9.33
2018-04-25T09:52:59.616Z,13.70
2018-04-25T09:55:27.477Z,12.53
2018-04-25T09:57:55.038Z,10.63
2018-04-25T10:00:22.840Z,9.07
2018-04-25T10:02:56.399Z,12.90
2018-04-25T10:05:24.300Z,8.23
2018-04-25T10:07:52.163Z,11.37
2018-04-25T10:10:19.662Z,11.03
2018-04-25T10:12:47.253Z,12.13
2018-04-25T10:15:14.870Z,9.23
2018-04-25T10:17:42.658Z,9.50
2018-04-25T10:20:10.227Z,14.27
2018-04-25T10:22:37.720Z,9.90
2018-04-25T10:25:05.660Z,13.00
2018-04-25T10:27:33.144Z,9.90
2018-04-25T10:30:00.613Z,13.57
2018-04-25T10:32:28.103Z,9.90
2018-04-25T10:34:55.674Z,9.10
2018-04-25T10:37:23.268Z,14.40
2018-04-25T10:39:51.250Z,11.10
2018-04-25T10:42:19.709Z,9.00
2018-04-25T10:44:47.884Z,10.07
2018-04-25T10:47:15.848Z,11.07
2018-04-25T10:49:43.371Z,10.40
2018-04-25T10:52:10.861Z,10.23
2018-04-25T10:54:38.331Z,13.93
2018-04-25T10:57:05.810Z,11.40
2018-04-25T10:59:34.336Z,9.70
2018-04-25T11:02:02.048Z,11.53
2018-04-25T11:04:29.520Z,9.27
2018-04-25T11:06:56.975Z,8.87
2018-04-25T11:09:24.533Z,9.00
2018-04-25T11:11:51.995Z,10.03
2018-04-25T11:14:19.504Z,8.43
2018-04-25T11:16:47.031Z,14.07
2018-04-25T11:19:14.594Z,9.73
2018-04-25T11:21:42.063Z,16.07
2018-04-25T11:24:09.942Z,7.67
2018-04-25T11:26:37.477Z,9.20
2018-04-25T11:29:04.939Z,8.07
2018-04-25T11:31:32.410Z,7.77
2018-04-25T11:34:00.391Z,7.03
2018-04-25T11:36:27.852Z,11.50
2018-04-25T11:38:55.833Z,7.73
2018-04-25T11:41:23.688Z,6.33
2018-04-25T11:43:51.159Z,9.30
2018-04-25T11:46:18.622Z,6.63
2018-04-25T11:48:46.484Z,7.10
2018-04-25T11:51:14.401Z,6.47
2018-04-25T11:53:41.983Z,8.30
2018-04-25T11:56:09.481Z,6.73
2018-04-25T11:58:37.547Z,10.03
2018-04-25T12:01:05.130Z,7.77
2018-04-25T12:03:32.633Z,9.80
2018-04-25T12:06:00.245Z,9.43
2018-04-25T12:08:27.721Z,10.97
2018-04-25T12:10:55.280Z,6.83
2018-04-25T12:13:22.772Z,11.03
2018-04-25T12:15:50.259Z,6.70
2018-04-25T12:18:17.721Z,8.83
2018-04-25T12:20:45.183Z,9.13
2018-04-25T12:23:12.710Z,7.93
2018-04-25T12:25:40.166Z,5.00
2018-04-25T12:28:08.087Z,6.43
2018-04-25T12:30:35.544Z,6.97
2018-04-25T12:33:03.007Z,11.00
2018-04-25T12:35:30.463Z,7.90
2018-04-25T12:37:57.923Z,7.10
2018-04-25T12:40:25.435Z,6.03
2018-04-25T12:42:52.908Z,7.30
2018-04-25T12:45:20.800Z,4.50
2018-04-25T12:47:48.646Z,4.90
2018-04-25T12:50:16.136Z,5.10
2018-04-25T12:52:43.783Z,3.50
2018-04-25T12:55:11.240Z,3.53
2018-04-25T12:57:38.799Z,2.67
2018-04-25T13:00:06.259Z,2.63
2018-04-25T13:02:33.777Z,2.40
2018-04-25T13:05:01.300Z,5.50
2018-04-25T13:07:29.160Z,3.27
2018-04-25T13:09:56.619Z,4.03
2018-04-25T13:12:24.108Z,4.87
2018-04-25T13:14:51.584Z,3.33
2018-04-25T13:17:20.457Z,4.63
2018-04-25T13:19:48.329Z,3.90
2018-04-25T13:22:16.287Z,2.27
2018-04-25T13:24:43.847Z,2.10
2018-04-25T13:27:11.305Z,4.30
2018-04-25T13:29:38.854Z,3.97
2018-04-25T13:32:06.318Z,1.60
2018-04-25T13:34:33.770Z,1.47
2018-04-25T13:37:01.245Z,2.57
2018-04-25T13:39:28.690Z,1.63
2018-04-25T13:41:56.219Z,1.83
2018-04-25T13:44:23.729Z,1.80
2018-04-25T13:46:51.283Z,2.40
2018-04-25T13:49:18.692Z,1.60
2018-04-25T13:51:46.643Z,3.20
2018-04-25T13:54:14.927Z,2.00
2018-04-25T13:56:42.541Z,1.60
2018-04-25T13:59:10.092Z,1.50
2018-04-25T14:01:37.621Z,9.50
2018-04-25T14:04:05.094Z,2.70
2018-04-25T14:06:32.749Z,2.30
2018-04-25T14:09:00.216Z,2.53
2018-04-25T14:11:27.729Z,2.67
2018-04-25T14:13:55.194Z,2.17
2018-04-25T14:16:22.678Z,4.33
2018-04-25T14:18:50.206Z,2.37
2018-04-25T14:21:17.671Z,3.93
2018-04-25T14:23:45.440Z,2.30
2018-04-25T14:26:12.998Z,2.10
2018-04-25T14:28:40.515Z,2.20
2018-04-25T14:31:08.095Z,3.57
2018-04-25T14:33:35.576Z,4.97
2018-04-25T14:36:03.437Z,2.33
2018-04-25T14:38:31.293Z,1.90
2018-04-25T14:40:58.750Z,2.33
2018-04-25T14:43:26.320Z,2.00
2018-04-25T14:45:53.885Z,1.60
2018-04-25T14:48:21.378Z,4.63
2018-04-25T14:50:49.242Z,2.67
2018-04-25T14:53:17.084Z,2.47
2018-04-25T14:55:44.959Z,4.40
2018-04-25T14:58:12.424Z,3.57
2018-04-25T15:00:39.880Z,2.80
2018-04-25T15:03:07.351Z,3.77
2018-04-25T15:05:34.818Z,2.23
2018-04-25T15:08:02.325Z,1.93
2018-04-25T15:10:29.779Z,2.90
2018-04-25T15:12:57.252Z,2.33
2018-04-25T15:15:24.708Z,3.80
2018-04-25T15:17:52.167Z,2.17
2018-04-25T15:20:19.727Z,2.53
2018-04-25T15:22:47.242Z,2.90
2018-04-25T15:25:14.729Z,3.30
2018-04-25T15:27:42.603Z,3.10
2018-04-25T15:30:10.541Z,4.17
2018-04-25T15:32:38.053Z,2.53
2018-04-25T15:35:05.565Z,4.17
2018-04-25T15:37:33.035Z,3.30
2018-04-25T15:40:00.620Z,3.27
2018-04-25T15:42:28.580Z,3.47
2018-04-25T15:44:56.077Z,2.90
2018-04-25T15:47:23.549Z,3.93
2018-04-25T15:49:51.332Z,2.70
2018-04-25T15:52:18.827Z,3.43
2018-04-25T15:54:46.397Z,3.63
2018-04-25T15:57:14.367Z,5.60
2018-04-25T15:59:41.809Z,3.00
2018-04-25T16:02:09.702Z,3.63
2018-04-25T16:04:37.684Z,3.37
2018-04-25T16:07:05.252Z,4.23
2018-04-25T16:09:32.808Z,3.30
2018-04-25T16:12:00.395Z,3.70
2018-04-25T16:14:28.508Z,6.17
2018-04-25T16:16:56.588Z,3.73
2018-04-25T16:19:24.550Z,3.83
2018-04-25T16:21:52.078Z,3.77
2018-04-25T16:24:20.060Z,3.00
2018-04-25T16:26:47.928Z,6.93
2018-04-25T16:29:16.208Z,3.60
2018-04-25T16:31:43.724Z,4.33
2018-04-25T16:34:11.190Z,3.30
2018-04-25T16:36:38.675Z,5.10
2018-04-25T16:39:06.163Z,8.23
2018-04-25T16:41:34.059Z,4.33
2018-04-25T16:44:01.509Z,3.80
2018-04-25T16:46:29.140Z,3.20
2018-04-25T16:48:56.707Z,4.50
2018-04-25T16:51:24.194Z,4.67
2018-04-25T16:53:52.162Z,4.37
2018-04-25T16:56:20.068Z,6.37
2018-04-25T16:58:47.528Z,3.40
2018-04-25T17:01:14.993Z,6.33
2018-04-25T17:03:42.490Z,3.10
2018-04-25T17:06:09.952Z,3.90
2018-04-25T17:11:11.417Z,3.97
2018-04-25T17:13:38.871Z,5.40
2018-04-25T17:16:06.486Z,3.80
2018-04-25T17:18:34.359Z,5.87
2018-04-25T17:21:02.468Z,3.70
2018-04-25T17:23:30.308Z,3.30
2018-04-25T17:25:58.164Z,3.27
2018-04-25T17:28:25.712Z,5.10
2018-04-25T17:30:53.181Z,3.60
2018-04-25T17:33:20.891Z,3.83
2018-04-25T17:35:48.387Z,3.10
2018-04-25T17:38:15.859Z,3.37
2018-04-25T17:40:43.332Z,4.27
2018-04-25T17:43:10.780Z,4.63
2018-04-25T17:45:38.267Z,4.07
2018-04-25T17:48:05.779Z,3.97
2018-04-25T17:50:33.251Z,3.70
2018-04-25T17:53:01.776Z,3.57
2018-04-25T17:55:29.335Z,3.30
2018-04-25T17:57:56.898Z,4.70
2018-04-25T18:00:24.394Z,7.27
2018-04-25T18:02:52.324Z,3.40
2018-04-25T18:05:19.801Z,3.77
2018-04-25T18:07:47.269Z,3.60
2018-04-25T18:10:14.757Z,3.83
2018-04-25T18:12:42.292Z,4.40
2018-04-25T18:15:09.909Z,3.97
2018-04-25T18:17:37.453Z,5.63
2018-04-25T18:20:04.905Z,3.27
2018-04-25T18:22:32.441Z,4.63
2018-04-25T18:25:00.451Z,3.03
2018-04-25T18:27:27.943Z,3.63
2018-04-25T18:29:55.457Z,4.40
2018-04-25T18:32:23.416Z,4.33
2018-04-25T18:34:50.904Z,2.50
2018-04-25T18:37:18.910Z,3.00
2018-04-25T18:39:46.351Z,3.00
2018-04-25T18:42:13.819Z,2.60
2018-04-25T18:44:42.247Z,3.20
2018-04-25T18:47:10.484Z,2.77
2018-04-25T18:49:38.048Z,2.80
2018-04-25T18:52:05.567Z,3.43
2018-04-25T18:54:33.050Z,3.00
2018-04-25T18:57:00.932Z,4.63
2018-04-25T18:59:29.418Z,2.53
2018-04-25T19:01:57.697Z,3.03
2018-04-25T19:04:25.583Z,3.03
2018-04-25T19:06:53.112Z,2.33
2018-04-25T19:09:21.126Z,2.40
2018-04-25T19:11:48.652Z,3.37
2018-04-25T19:14:16.174Z,2.83
2018-04-25T19:16:43.667Z,4.97
2018-04-25T19:19:11.242Z,3.30
2018-04-25T19:21:39.051Z,3.40
2018-04-25T19:24:07.543Z,3.50
2018-04-25T19:26:35.140Z,4.70
2018-04-25T19:29:02.985Z,4.17
2018-04-25T19:31:30.697Z,4.60
2018-04-25T19:33:58.615Z,3.13
2018-04-25T19:36:26.154Z,3.57
2018-04-25T19:38:53.634Z,4.83
2018-04-25T19:41:21.136Z,4.10
2018-04-25T19:43:48.734Z,4.30
2018-04-25T19:46:16.703Z,3.67
2018-04-25T19:48:44.559Z,2.83
2018-04-25T19:51:12.110Z,3.97
2018-04-25T19:53:39.615Z,2.37
2018-04-25T19:56:07.562Z,2.30
2018-04-25T19:58:35.113Z,2.50
2018-04-25T20:01:02.598Z,1.80
2018-04-25T20:03:30.132Z,3.40
2018-04-25T20:05:57.627Z,4.07
2018-04-25T20:08:25.608Z,2.40
2018-04-25T20:10:53.610Z,3.00
2018-04-25T20:13:21.133Z,2.10
2018-04-25T20:15:48.659Z,1.70
2018-04-25T20:18:16.140Z,2.97
2018-04-25T20:20:43.943Z,5.00
2018-04-25T20:23:11.846Z,1.73
2018-04-25T20:25:39.462Z,4.30
2018-04-25T20:28:07.021Z,2.63
2018-04-25T20:30:34.488Z,2.80
2018-04-25T20:33:01.955Z,1.70
2018-04-25T20:35:29.841Z,2.20
2018-04-25T20:37:57.309Z,2.07
2018-04-25T20:40:25.253Z,2.57
2018-04-25T20:42:52.822Z,2.70
2018-04-25T20:45:20.291Z,2.90
2018-04-25T20:47:47.848Z,4.00
2018-04-25T20:50:15.416Z,2.20
2018-04-25T20:52:42.924Z,6.20
2018-04-25T20:55:10.397Z,2.00
2018-04-25T20:57:37.899Z,3.87
2018-04-25T21:00:05.684Z,2.63
2018-04-25T21:02:33.274Z,4.53
2018-04-25T21:05:00.772Z,5.00
2018-04-25T21:07:28.260Z,2.20
2018-04-25T21:09:55.741Z,2.40
2018-04-25T21:12:23.215Z,2.53
2018-04-25T21:14:50.800Z,2.47
2018-04-25T21:17:18.322Z,2.80
2018-04-25T21:19:45.772Z,2.67
2018-04-25T21:22:13.339Z,2.70
2018-04-25T21:24:40.808Z,5.10
2018-04-25T21:27:08.276Z,2.43
2018-04-25T21:29:36.144Z,3.83
2018-04-25T21:32:04.045Z,2.93
2018-04-25T21:34:31.535Z,4.00
2018-04-25T21:36:59.020Z,3.70
2018-04-25T21:39:26.506Z,3.60
2018-04-25T21:41:54.428Z,3.43
2018-04-25T21:44:22.380Z,4.33
2018-04-25T21:46:49.856Z,3.00
2018-04-25T21:49:17.323Z,3.33
2018-04-25T21:51:44.812Z,3.10
2018-04-25T21:54:12.333Z,3.47
2018-04-25T21:56:39.806Z,3.80
2018-04-25T21:59:07.269Z,4.30
2018-04-25T22:01:34.743Z,3.77
2018-04-25T22:04:02.232Z,2.67
2018-04-25T22:06:29.761Z,2.83
2018-04-25T22:08:57.272Z,3.53
2018-04-25T22:11:25.762Z,3.40
2018-04-25T22:13:53.775Z,3.80
2018-04-25T22:16:21.239Z,3.50
2018-04-25T22:18:48.722Z,4.07
2018-04-25T22:21:16.197Z,3.20
2018-04-25T22:23:43.653Z,3.63
2018-04-25T22:26:11.127Z,3.50
2018-04-25T22:28:38.593Z,2.77
2018-04-25T22:31:06.114Z,4.80
2018-04-25T22:33:35.558Z,4.97
2018-04-25T22:36:03.044Z,3.53
2018-04-25T22:38:30.909Z,3.60
2018-04-25T22:40:58.357Z,3.00
2018-04-25T22:43:25.897Z,2.93
2018-04-25T22:45:53.347Z,2.87
2018-04-25T22:48:20.805Z,2.90
2018-04-25T22:50:48.258Z,5.10
2018-04-25T22:53:15.727Z,3.93
2018-04-25T22:55:43.345Z,3.00
2018-04-25T22:58:10.808Z,2.50
2018-04-25T23:00:38.283Z,2.63
2018-04-25T23:03:06.140Z,2.60
2018-04-25T23:05:34.099Z,3.80
2018-04-25T23:08:01.678Z,2.90
2018-04-25T23:10:29.221Z,2.83
2018-04-25T23:12:56.669Z,4.30
2018-04-25T23:15:24.122Z,6.60
2018-04-25T23:17:51.592Z,2.80
2018-04-25T23:20:19.604Z,2.70
2018-04-25T23:22:47.486Z,4.60
2018-04-25T23:25:15.358Z,2.90
2018-04-25T23:27:43.331Z,3.00
2018-04-25T23:30:11.229Z,2.70
2018-04-25T23:32:38.757Z,5.23
2018-04-25T23:35:06.356Z,2.83
2018-04-25T23:37:33.873Z,3.47
2018-04-25T23:40:01.386Z,1.83
2018-04-25T23:42:28.924Z,7.10
2018-04-25T23:44:56.895Z,1.37
2018-04-25T23:47:24.778Z,5.07
2018-04-25T23:49:52.669Z,5.67
2018-04-25T23:52:20.303Z,3.10
2018-04-25T23:54:48.162Z,2.07
2018-04-25T23:57:15.663Z,2.53
2018-04-25T23:59:43.139Z,1.87
